sensor_id;sensor_type;location;lat;lon;timestamp;P1;durP1;ratioP1;P2;durP2;ratioP2
11887;SDS011;6003;42.756;23.130;2022-10-16T00:01:14;3.60;;;2.47;;
11887;SDS011;6003;42.756;23.130;2022-10-16T00:03:43;3.27;;;2.63;;
11887;SDS011;6003;42.756;23.130;2022-10-16T00:06:11;4.27;;;1.97;;
11887;SDS011;6003;42.756;23.130;2022-10-16T00:08:39;2.37;;;2.07;;
11887;SDS011;6003;42.756;23.130;2022-10-16T00:11:09;2.90;;;2.70;;
11887;SDS011;6003;42.756;23.130;2022-10-16T00:13:37;2.60;;;2.40;;
11887;SDS011;6003;42.756;23.130;2022-10-16T00:16:06;4.20;;;2.40;;
11887;SDS011;6003;42.756;23.130;2022-10-16T00:18:33;3.30;;;2.40;;
11887;SDS011;6003;42.756;23.130;2022-10-16T00:21:02;1.87;;;1.77;;
11887;SDS011;6003;42.756;23.130;2022-10-16T00:23:29;2.70;;;2.50;;
11887;SDS011;6003;42.756;23.130;2022-10-16T00:25:57;3.33;;;2.20;;
11887;SDS011;6003;42.756;23.130;2022-10-16T00:28:26;2.87;;;2.43;;
11887;SDS011;6003;42.756;23.130;2022-10-16T00:30:53;2.60;;;2.40;;
11887;SDS011;6003;42.756;23.130;2022-10-16T00:33:20;2.90;;;2.70;;
11887;SDS011;6003;42.756;23.130;2022-10-16T00:35:47;2.50;;;2.30;;
11887;SDS011;6003;42.756;23.130;2022-10-16T00:38:15;2.77;;;2.57;;
11887;SDS011;6003;42.756;23.130;2022-10-16T00:40:42;4.13;;;2.97;;
11887;SDS011;6003;42.756;23.130;2022-10-16T00:43:12;2.70;;;2.40;;
11887;SDS011;6003;42.756;23.130;2022-10-16T00:45:41;2.57;;;2.37;;
11887;SDS011;6003;42.756;23.130;2022-10-16T00:48:25;3.20;;;2.60;;
11887;SDS011;6003;42.756;23.130;2022-10-16T00:50:52;2.50;;;2.30;;
11887;SDS011;6003;42.756;23.130;2022-10-16T00:53:19;2.60;;;2.20;;
11887;SDS011;6003;42.756;23.130;2022-10-16T00:55:46;3.33;;;2.50;;
11887;SDS011;6003;42.756;23.130;2022-10-16T00:58:13;2.03;;;1.93;;
11887;SDS011;6003;42.756;23.130;2022-10-16T01:00:41;3.13;;;2.83;;
11887;SDS011;6003;42.756;23.130;2022-10-16T01:03:21;3.67;;;2.27;;
11887;SDS011;6003;42.756;23.130;2022-10-16T01:05:51;2.43;;;2.27;;
11887;SDS011;6003;42.756;23.130;2022-10-16T01:08:27;2.60;;;2.40;;
11887;SDS011;6003;42.756;23.130;2022-10-16T01:11:01;3.03;;;2.23;;
11887;SDS011;6003;42.756;23.130;2022-10-16T01:13:38;3.47;;;2.40;;
11887;SDS011;6003;42.756;23.130;2022-10-16T01:16:11;2.70;;;2.40;;
11887;SDS011;6003;42.756;23.130;2022-10-16T01:22:03;2.70;;;2.50;;
11887;SDS011;6003;42.756;23.130;2022-10-16T01:24:33;2.60;;;2.40;;
11887;SDS011;6003;42.756;23.130;2022-10-16T01:27:08;3.00;;;2.20;;
11887;SDS011;6003;42.756;23.130;2022-10-16T01:29:37;4.03;;;2.70;;
11887;SDS011;6003;42.756;23.130;2022-10-16T01:32:10;2.53;;;2.33;;
11887;SDS011;6003;42.756;23.130;2022-10-16T01:34:42;2.43;;;2.23;;
11887;SDS011;6003;42.756;23.130;2022-10-16T01:37:15;2.00;;;1.90;;
11887;SDS011;6003;42.756;23.130;2022-10-16T01:39:47;2.47;;;2.27;;
11887;SDS011;6003;42.756;23.130;2022-10-16T01:42:19;2.77;;;2.57;;
11887;SDS011;6003;42.756;23.130;2022-10-16T01:44:48;2.60;;;2.40;;
11887;SDS011;6003;42.756;23.130;2022-10-16T01:47:17;2.67;;;2.40;;
11887;SDS011;6003;42.756;23.130;2022-10-16T01:49:47;4.50;;;3.00;;
11887;SDS011;6003;42.756;23.130;2022-10-16T01:52:17;3.40;;;2.27;;
11887;SDS011;6003;42.756;23.130;2022-10-16T01:54:50;3.63;;;3.00;;
11887;SDS011;6003;42.756;23.130;2022-10-16T01:57:21;2.87;;;2.50;;
11887;SDS011;6003;42.756;23.130;2022-10-16T01:59:52;3.97;;;2.43;;
11887;SDS011;6003;42.756;23.130;2022-10-16T02:02:24;3.37;;;2.63;;
11887;SDS011;6003;42.756;23.130;2022-10-16T02:04:55;3.03;;;2.43;;
11887;SDS011;6003;42.756;23.130;2022-10-16T02:07:25;3.43;;;3.13;;
11887;SDS011;6003;42.756;23.130;2022-10-16T02:09:52;3.07;;;2.80;;
11887;SDS011;6003;42.756;23.130;2022-10-16T02:12:21;3.43;;;3.13;;
11887;SDS011;6003;42.756;23.130;2022-10-16T02:14:52;3.17;;;2.67;;
11887;SDS011;6003;42.756;23.130;2022-10-16T02:17:20;3.67;;;3.10;;
11887;SDS011;6003;42.756;23.130;2022-10-16T02:19:47;3.63;;;2.57;;
11887;SDS011;6003;42.756;23.130;2022-10-16T02:22:20;3.07;;;2.70;;
11887;SDS011;6003;42.756;23.130;2022-10-16T02:24:54;3.37;;;2.80;;
11887;SDS011;6003;42.756;23.130;2022-10-16T02:27:26;2.83;;;2.57;;
11887;SDS011;6003;42.756;23.130;2022-10-16T02:30:01;2.40;;;2.30;;
11887;SDS011;6003;42.756;23.130;2022-10-16T02:32:33;2.47;;;2.27;;
11887;SDS011;6003;42.756;23.130;2022-10-16T02:35:03;2.60;;;2.40;;
11887;SDS011;6003;42.756;23.130;2022-10-16T02:37:32;2.83;;;2.63;;
11887;SDS011;6003;42.756;23.130;2022-10-16T02:39:59;3.10;;;2.90;;
11887;SDS011;6003;42.756;23.130;2022-10-16T02:42:29;3.23;;;2.70;;
11887;SDS011;6003;42.756;23.130;2022-10-16T02:44:59;2.57;;;2.03;;
11887;SDS011;6003;42.756;23.130;2022-10-16T02:47:26;4.93;;;2.90;;
11887;SDS011;6003;42.756;23.130;2022-10-16T02:49:53;2.93;;;2.67;;
11887;SDS011;6003;42.756;23.130;2022-10-16T02:52:20;2.80;;;2.60;;
11887;SDS011;6003;42.756;23.130;2022-10-16T02:54:47;2.60;;;2.40;;
11887;SDS011;6003;42.756;23.130;2022-10-16T02:57:14;2.57;;;2.40;;
11887;SDS011;6003;42.756;23.130;2022-10-16T02:59:42;4.10;;;2.87;;
11887;SDS011;6003;42.756;23.130;2022-10-16T03:02:09;3.47;;;2.37;;
11887;SDS011;6003;42.756;23.130;2022-10-16T03:04:36;2.60;;;2.40;;
11887;SDS011;6003;42.756;23.130;2022-10-16T03:07:03;4.17;;;2.80;;
11887;SDS011;6003;42.756;23.130;2022-10-16T03:09:30;2.70;;;2.50;;
11887;SDS011;6003;42.756;23.130;2022-10-16T03:11:57;2.80;;;2.47;;
11887;SDS011;6003;42.756;23.130;2022-10-16T03:14:24;3.23;;;2.63;;
11887;SDS011;6003;42.756;23.130;2022-10-16T03:16:52;2.87;;;2.67;;
11887;SDS011;6003;42.756;23.130;2022-10-16T03:19:19;3.20;;;2.60;;
11887;SDS011;6003;42.756;23.130;2022-10-16T03:21:46;3.43;;;2.10;;
11887;SDS011;6003;42.756;23.130;2022-10-16T03:24:13;2.43;;;2.27;;
11887;SDS011;6003;42.756;23.130;2022-10-16T03:26:40;2.60;;;2.40;;
11887;SDS011;6003;42.756;23.130;2022-10-16T03:29:06;3.87;;;2.90;;
11887;SDS011;6003;42.756;23.130;2022-10-16T03:31:33;2.20;;;2.10;;
11887;SDS011;6003;42.756;23.130;2022-10-16T03:34:01;3.33;;;3.03;;
11887;SDS011;6003;42.756;23.130;2022-10-16T03:36:28;2.27;;;2.13;;
11887;SDS011;6003;42.756;23.130;2022-10-16T03:38:55;2.30;;;2.20;;
11887;SDS011;6003;42.756;23.130;2022-10-16T03:41:22;2.20;;;2.03;;
11887;SDS011;6003;42.756;23.130;2022-10-16T03:43:48;4.13;;;2.63;;
11887;SDS011;6003;42.756;23.130;2022-10-16T03:46:16;2.50;;;2.27;;
11887;SDS011;6003;42.756;23.130;2022-10-16T03:48:43;4.30;;;2.80;;
11887;SDS011;6003;42.756;23.130;2022-10-16T03:51:11;2.90;;;2.57;;
11887;SDS011;6003;42.756;23.130;2022-10-16T03:53:38;2.97;;;2.67;;
11887;SDS011;6003;42.756;23.130;2022-10-16T03:56:05;2.60;;;2.40;;
11887;SDS011;6003;42.756;23.130;2022-10-16T03:58:32;2.50;;;2.23;;
11887;SDS011;6003;42.756;23.130;2022-10-16T04:01:00;2.77;;;2.57;;
11887;SDS011;6003;42.756;23.130;2022-10-16T04:03:26;3.03;;;2.67;;
11887;SDS011;6003;42.756;23.130;2022-10-16T04:05:53;3.40;;;2.97;;
11887;SDS011;6003;42.756;23.130;2022-10-16T04:08:22;2.97;;;2.77;;
11887;SDS011;6003;42.756;23.130;2022-10-16T04:10:48;2.57;;;2.37;;
11887;SDS011;6003;42.756;23.130;2022-10-16T04:13:15;5.27;;;4.63;;
11887;SDS011;6003;42.756;23.130;2022-10-16T04:15:42;3.50;;;3.13;;
11887;SDS011;6003;42.756;23.130;2022-10-16T04:18:11;3.90;;;2.90;;
11887;SDS011;6003;42.756;23.130;2022-10-16T04:20:38;3.07;;;2.80;;
11887;SDS011;6003;42.756;23.130;2022-10-16T04:23:04;3.10;;;2.90;;
11887;SDS011;6003;42.756;23.130;2022-10-16T04:25:32;2.63;;;2.43;;
11887;SDS011;6003;42.756;23.130;2022-10-16T04:31:03;3.97;;;2.70;;
11887;SDS011;6003;42.756;23.130;2022-10-16T04:33:31;3.33;;;3.03;;
11887;SDS011;6003;42.756;23.130;2022-10-16T04:35:58;3.47;;;3.17;;
11887;SDS011;6003;42.756;23.130;2022-10-16T04:38:25;3.03;;;2.67;;
11887;SDS011;6003;42.756;23.130;2022-10-16T04:40:54;3.13;;;2.83;;
11887;SDS011;6003;42.756;23.130;2022-10-16T04:43:21;2.93;;;2.70;;
11887;SDS011;6003;42.756;23.130;2022-10-16T04:45:48;4.17;;;2.90;;
11887;SDS011;6003;42.756;23.130;2022-10-16T04:48:16;2.80;;;2.60;;
11887;SDS011;6003;42.756;23.130;2022-10-16T04:50:43;3.20;;;2.90;;
11887;SDS011;6003;42.756;23.130;2022-10-16T04:53:10;2.40;;;2.20;;
11887;SDS011;6003;42.756;23.130;2022-10-16T04:55:36;2.90;;;2.63;;
11887;SDS011;6003;42.756;23.130;2022-10-16T04:58:13;2.83;;;2.63;;
11887;SDS011;6003;42.756;23.130;2022-10-16T05:00:40;4.07;;;3.67;;
11887;SDS011;6003;42.756;23.130;2022-10-16T05:03:07;3.73;;;3.43;;
11887;SDS011;6003;42.756;23.130;2022-10-16T05:05:34;3.53;;;3.23;;
11887;SDS011;6003;42.756;23.130;2022-10-16T05:08:02;3.77;;;3.47;;
11887;SDS011;6003;42.756;23.130;2022-10-16T05:10:29;3.27;;;2.93;;
11887;SDS011;6003;42.756;23.130;2022-10-16T05:12:56;4.33;;;2.93;;
11887;SDS011;6003;42.756;23.130;2022-10-16T05:15:24;3.30;;;3.00;;
11887;SDS011;6003;42.756;23.130;2022-10-16T05:17:54;4.97;;;3.50;;
11887;SDS011;6003;42.756;23.130;2022-10-16T05:20:22;4.13;;;3.37;;
11887;SDS011;6003;42.756;23.130;2022-10-16T05:22:49;4.97;;;3.50;;
11887;SDS011;6003;42.756;23.130;2022-10-16T05:25:16;3.87;;;3.57;;
11887;SDS011;6003;42.756;23.130;2022-10-16T05:27:46;5.83;;;3.33;;
11887;SDS011;6003;42.756;23.130;2022-10-16T05:30:13;5.43;;;3.30;;
11887;SDS011;6003;42.756;23.130;2022-10-16T05:32:45;3.73;;;3.43;;
11887;SDS011;6003;42.756;23.130;2022-10-16T05:35:13;4.57;;;3.47;;
11887;SDS011;6003;42.756;23.130;2022-10-16T05:37:40;4.60;;;3.47;;
11887;SDS011;6003;42.756;23.130;2022-10-16T05:40:07;4.17;;;3.77;;
11887;SDS011;6003;42.756;23.130;2022-10-16T05:42:35;3.50;;;3.20;;
11887;SDS011;6003;42.756;23.130;2022-10-16T05:45:02;3.30;;;3.10;;
11887;SDS011;6003;42.756;23.130;2022-10-16T05:47:30;4.10;;;3.70;;
11887;SDS011;6003;42.756;23.130;2022-10-16T05:49:58;5.23;;;4.13;;
11887;SDS011;6003;42.756;23.130;2022-10-16T05:52:26;7.57;;;4.57;;
11887;SDS011;6003;42.756;23.130;2022-10-16T05:54:53;7.07;;;5.20;;
11887;SDS011;6003;42.756;23.130;2022-10-16T05:57:20;7.80;;;6.03;;
11887;SDS011;6003;42.756;23.130;2022-10-16T05:59:47;7.67;;;4.67;;
11887;SDS011;6003;42.756;23.130;2022-10-16T06:02:16;8.77;;;4.97;;
11887;SDS011;6003;42.756;23.130;2022-10-16T06:04:43;6.90;;;5.57;;
11887;SDS011;6003;42.756;23.130;2022-10-16T06:07:11;7.17;;;4.97;;
11887;SDS011;6003;42.756;23.130;2022-10-16T06:09:38;6.90;;;5.00;;
11887;SDS011;6003;42.756;23.130;2022-10-16T06:12:05;6.83;;;4.83;;
11887;SDS011;6003;42.756;23.130;2022-10-16T06:14:32;7.13;;;5.23;;
11887;SDS011;6003;42.756;23.130;2022-10-16T06:16:59;7.60;;;5.23;;
11887;SDS011;6003;42.756;23.130;2022-10-16T06:19:25;5.03;;;4.50;;
11887;SDS011;6003;42.756;23.130;2022-10-16T06:21:52;10.70;;;5.63;;
11887;SDS011;6003;42.756;23.130;2022-10-16T06:24:20;8.00;;;5.20;;
11887;SDS011;6003;42.756;23.130;2022-10-16T06:26:47;6.63;;;4.93;;
11887;SDS011;6003;42.756;23.130;2022-10-16T06:29:14;6.10;;;5.27;;
11887;SDS011;6003;42.756;23.130;2022-10-16T06:31:41;6.90;;;4.93;;
11887;SDS011;6003;42.756;23.130;2022-10-16T06:34:08;6.57;;;5.13;;
11887;SDS011;6003;42.756;23.130;2022-10-16T06:36:36;5.77;;;4.73;;
11887;SDS011;6003;42.756;23.130;2022-10-16T06:39:03;5.70;;;4.67;;
11887;SDS011;6003;42.756;23.130;2022-10-16T06:41:33;5.33;;;4.83;;
11887;SDS011;6003;42.756;23.130;2022-10-16T06:44:01;4.80;;;4.30;;
11887;SDS011;6003;42.756;23.130;2022-10-16T06:46:31;5.60;;;4.77;;
11887;SDS011;6003;42.756;23.130;2022-10-16T06:48:57;6.20;;;4.40;;
11887;SDS011;6003;42.756;23.130;2022-10-16T06:51:24;4.67;;;3.87;;
11887;SDS011;6003;42.756;23.130;2022-10-16T06:53:52;5.10;;;4.43;;
11887;SDS011;6003;42.756;23.130;2022-10-16T06:56:22;11.33;;;4.57;;
11887;SDS011;6003;42.756;23.130;2022-10-16T06:58:51;4.97;;;4.47;;
11887;SDS011;6003;42.756;23.130;2022-10-16T07:01:20;4.73;;;4.33;;
11887;SDS011;6003;42.756;23.130;2022-10-16T07:03:48;5.27;;;4.27;;
11887;SDS011;6003;42.756;23.130;2022-10-16T07:06:16;7.47;;;4.47;;
11887;SDS011;6003;42.756;23.130;2022-10-16T07:08:52;4.73;;;4.00;;
11887;SDS011;6003;42.756;23.130;2022-10-16T07:11:20;6.23;;;4.30;;
11887;SDS011;6003;42.756;23.130;2022-10-16T07:13:48;4.90;;;3.93;;
11887;SDS011;6003;42.756;23.130;2022-10-16T07:16:18;4.53;;;3.73;;
11887;SDS011;6003;42.756;23.130;2022-10-16T07:18:46;3.87;;;3.47;;
11887;SDS011;6003;42.756;23.130;2022-10-16T07:21:14;4.47;;;4.07;;
11887;SDS011;6003;42.756;23.130;2022-10-16T07:23:42;5.67;;;4.10;;
11887;SDS011;6003;42.756;23.130;2022-10-16T07:26:10;5.13;;;4.63;;
11887;SDS011;6003;42.756;23.130;2022-10-16T07:28:45;7.27;;;4.80;;
11887;SDS011;6003;42.756;23.130;2022-10-16T07:31:13;4.40;;;4.00;;
11887;SDS011;6003;42.756;23.130;2022-10-16T07:33:42;5.23;;;4.43;;
11887;SDS011;6003;42.756;23.130;2022-10-16T07:36:10;7.90;;;4.77;;
11887;SDS011;6003;42.756;23.130;2022-10-16T07:38:37;5.47;;;4.07;;
11887;SDS011;6003;42.756;23.130;2022-10-16T07:41:05;4.23;;;3.90;;
11887;SDS011;6003;42.756;23.130;2022-10-16T07:43:33;4.57;;;3.97;;
11887;SDS011;6003;42.756;23.130;2022-10-16T07:46:01;5.37;;;4.27;;
11887;SDS011;6003;42.756;23.130;2022-10-16T07:48:28;5.10;;;4.07;;
11887;SDS011;6003;42.756;23.130;2022-10-16T07:50:58;4.57;;;4.17;;
11887;SDS011;6003;42.756;23.130;2022-10-16T07:53:25;6.03;;;4.33;;
11887;SDS011;6003;42.756;23.130;2022-10-16T07:55:52;4.13;;;3.77;;
11887;SDS011;6003;42.756;23.130;2022-10-16T07:58:23;4.97;;;3.73;;
11887;SDS011;6003;42.756;23.130;2022-10-16T08:00:49;5.80;;;3.63;;
11887;SDS011;6003;42.756;23.130;2022-10-16T08:03:16;4.47;;;4.03;;
11887;SDS011;6003;42.756;23.130;2022-10-16T08:05:43;3.73;;;3.00;;
11887;SDS011;6003;42.756;23.130;2022-10-16T08:08:13;6.03;;;3.73;;
11887;SDS011;6003;42.756;23.130;2022-10-16T08:10:41;6.47;;;5.73;;
11887;SDS011;6003;42.756;23.130;2022-10-16T08:13:08;4.77;;;4.30;;
11887;SDS011;6003;42.756;23.130;2022-10-16T08:15:35;6.50;;;3.60;;
11887;SDS011;6003;42.756;23.130;2022-10-16T08:18:02;4.97;;;3.50;;
11887;SDS011;6003;42.756;23.130;2022-10-16T08:20:31;3.77;;;3.43;;
11887;SDS011;6003;42.756;23.130;2022-10-16T08:22:59;3.80;;;3.50;;
11887;SDS011;6003;42.756;23.130;2022-10-16T08:25:27;3.70;;;3.40;;
11887;SDS011;6003;42.756;23.130;2022-10-16T08:27:54;5.27;;;4.60;;
11887;SDS011;6003;42.756;23.130;2022-10-16T08:30:22;4.80;;;3.07;;
11887;SDS011;6003;42.756;23.130;2022-10-16T08:32:50;3.70;;;3.40;;
11887;SDS011;6003;42.756;23.130;2022-10-16T08:35:17;4.47;;;3.83;;
11887;SDS011;6003;42.756;23.130;2022-10-16T08:37:44;3.80;;;3.50;;
11887;SDS011;6003;42.756;23.130;2022-10-16T08:40:15;3.60;;;3.30;;
11887;SDS011;6003;42.756;23.130;2022-10-16T08:42:55;3.60;;;3.30;;
11887;SDS011;6003;42.756;23.130;2022-10-16T08:45:43;3.23;;;2.97;;
11887;SDS011;6003;42.756;23.130;2022-10-16T08:48:26;3.50;;;3.20;;
11887;SDS011;6003;42.756;23.130;2022-10-16T08:50:57;3.87;;;2.97;;
11887;SDS011;6003;42.756;23.130;2022-10-16T08:53:25;3.57;;;3.27;;
11887;SDS011;6003;42.756;23.130;2022-10-16T08:55:56;2.23;;;2.03;;
11887;SDS011;6003;42.756;23.130;2022-10-16T08:58:27;2.03;;;1.93;;
11887;SDS011;6003;42.756;23.130;2022-10-16T09:00:55;3.33;;;2.83;;
11887;SDS011;6003;42.756;23.130;2022-10-16T09:03:29;3.27;;;3.07;;
11887;SDS011;6003;42.756;23.130;2022-10-16T09:06:12;6.10;;;3.87;;
11887;SDS011;6003;42.756;23.130;2022-10-16T09:08:52;2.83;;;2.63;;
11887;SDS011;6003;42.756;23.130;2022-10-16T09:11:35;2.50;;;2.40;;
11887;SDS011;6003;42.756;23.130;2022-10-16T09:14:17;2.67;;;2.47;;
11887;SDS011;6003;42.756;23.130;2022-10-16T09:17:04;3.20;;;2.70;;
11887;SDS011;6003;42.756;23.130;2022-10-16T09:19:45;3.17;;;2.93;;
11887;SDS011;6003;42.756;23.130;2022-10-16T09:22:18;5.10;;;2.67;;
11887;SDS011;6003;42.756;23.130;2022-10-16T09:24:49;3.13;;;2.47;;
11887;SDS011;6003;42.756;23.130;2022-10-16T09:27:16;2.63;;;2.43;;
11887;SDS011;6003;42.756;23.130;2022-10-16T09:29:44;3.23;;;3.00;;
11887;SDS011;6003;42.756;23.130;2022-10-16T09:32:12;3.83;;;3.53;;
11887;SDS011;6003;42.756;23.130;2022-10-16T09:34:43;2.73;;;2.47;;
11887;SDS011;6003;42.756;23.130;2022-10-16T09:37:16;3.20;;;2.90;;
11887;SDS011;6003;42.756;23.130;2022-10-16T09:39:45;4.00;;;3.07;;
11887;SDS011;6003;42.756;23.130;2022-10-16T09:42:14;3.20;;;2.67;;
11887;SDS011;6003;42.756;23.130;2022-10-16T09:44:42;3.33;;;2.53;;
11887;SDS011;6003;42.756;23.130;2022-10-16T09:47:17;2.30;;;2.10;;
11887;SDS011;6003;42.756;23.130;2022-10-16T09:49:50;2.10;;;2.00;;
11887;SDS011;6003;42.756;23.130;2022-10-16T09:52:18;3.70;;;3.10;;
11887;SDS011;6003;42.756;23.130;2022-10-16T09:54:49;2.30;;;2.17;;
11887;SDS011;6003;42.756;23.130;2022-10-16T09:57:18;2.27;;;2.07;;
11887;SDS011;6003;42.756;23.130;2022-10-16T09:59:46;2.47;;;2.27;;
11887;SDS011;6003;42.756;23.130;2022-10-16T10:02:16;2.60;;;2.40;;
11887;SDS011;6003;42.756;23.130;2022-10-16T10:04:48;2.93;;;2.10;;
11887;SDS011;6003;42.756;23.130;2022-10-16T10:07:20;2.80;;;2.37;;
11887;SDS011;6003;42.756;23.130;2022-10-16T10:09:52;2.30;;;2.10;;
11887;SDS011;6003;42.756;23.130;2022-10-16T10:12:20;2.37;;;2.17;;
11887;SDS011;6003;42.756;23.130;2022-10-16T10:14:48;2.50;;;2.30;;
11887;SDS011;6003;42.756;23.130;2022-10-16T10:17:19;2.10;;;2.00;;
11887;SDS011;6003;42.756;23.130;2022-10-16T10:19:49;2.43;;;2.30;;
11887;SDS011;6003;42.756;23.130;2022-10-16T10:22:19;3.57;;;2.43;;
11887;SDS011;6003;42.756;23.130;2022-10-16T10:24:56;2.40;;;2.20;;
11887;SDS011;6003;42.756;23.130;2022-10-16T10:27:29;2.50;;;2.30;;
11887;SDS011;6003;42.756;23.130;2022-10-16T10:30:05;2.50;;;2.40;;
11887;SDS011;6003;42.756;23.130;2022-10-16T10:32:43;2.80;;;2.33;;
11887;SDS011;6003;42.756;23.130;2022-10-16T10:35:19;3.97;;;3.57;;
11887;SDS011;6003;42.756;23.130;2022-10-16T10:37:57;2.33;;;2.23;;
11887;SDS011;6003;42.756;23.130;2022-10-16T10:40:38;2.50;;;2.23;;
11887;SDS011;6003;42.756;23.130;2022-10-16T10:43:15;2.30;;;2.10;;
11887;SDS011;6003;42.756;23.130;2022-10-16T10:45:54;2.13;;;2.00;;
11887;SDS011;6003;42.756;23.130;2022-10-16T10:48:31;2.70;;;2.40;;
11887;SDS011;6003;42.756;23.130;2022-10-16T10:51:11;2.33;;;2.13;;
11887;SDS011;6003;42.756;23.130;2022-10-16T10:53:44;2.33;;;2.13;;
11887;SDS011;6003;42.756;23.130;2022-10-16T10:56:24;1.93;;;1.83;;
11887;SDS011;6003;42.756;23.130;2022-10-16T10:59:09;2.57;;;2.37;;
11887;SDS011;6003;42.756;23.130;2022-10-16T11:01:55;4.00;;;2.57;;
11887;SDS011;6003;42.756;23.130;2022-10-16T11:07:20;2.13;;;2.00;;
11887;SDS011;6003;42.756;23.130;2022-10-16T11:09:53;2.03;;;1.83;;
11887;SDS011;6003;42.756;23.130;2022-10-16T11:12:24;2.20;;;2.10;;
11887;SDS011;6003;42.756;23.130;2022-10-16T11:14:57;1.80;;;1.70;;
11887;SDS011;6003;42.756;23.130;2022-10-16T11:17:28;1.93;;;1.83;;
11887;SDS011;6003;42.756;23.130;2022-10-16T11:20:02;1.90;;;1.70;;
11887;SDS011;6003;42.756;23.130;2022-10-16T11:22:38;2.50;;;1.90;;
11887;SDS011;6003;42.756;23.130;2022-10-16T11:25:12;3.00;;;2.03;;
11887;SDS011;6003;42.756;23.130;2022-10-16T11:27:42;3.87;;;2.43;;
11887;SDS011;6003;42.756;23.130;2022-10-16T11:30:14;1.97;;;1.87;;
11887;SDS011;6003;42.756;23.130;2022-10-16T11:32:50;2.23;;;2.13;;
11887;SDS011;6003;42.756;23.130;2022-10-16T11:35:31;1.97;;;1.87;;
11887;SDS011;6003;42.756;23.130;2022-10-16T11:38:07;1.90;;;1.80;;
11887;SDS011;6003;42.756;23.130;2022-10-16T11:40:42;3.07;;;1.93;;
11887;SDS011;6003;42.756;23.130;2022-10-16T11:43:14;2.20;;;2.00;;
11887;SDS011;6003;42.756;23.130;2022-10-16T11:45:48;4.03;;;2.37;;
11887;SDS011;6003;42.756;23.130;2022-10-16T11:48:21;2.00;;;1.90;;
11887;SDS011;6003;42.756;23.130;2022-10-16T11:50:54;1.77;;;1.67;;
11887;SDS011;6003;42.756;23.130;2022-10-16T11:53:35;1.67;;;1.57;;
11887;SDS011;6003;42.756;23.130;2022-10-16T11:56:11;2.73;;;1.90;;
11887;SDS011;6003;42.756;23.130;2022-10-16T11:58:41;1.97;;;1.80;;
11887;SDS011;6003;42.756;23.130;2022-10-16T12:01:17;2.20;;;2.10;;
11887;SDS011;6003;42.756;23.130;2022-10-16T12:03:55;1.90;;;1.70;;
11887;SDS011;6003;42.756;23.130;2022-10-16T12:06:36;1.77;;;1.67;;
11887;SDS011;6003;42.756;23.130;2022-10-16T12:09:09;2.27;;;1.97;;
11887;SDS011;6003;42.756;23.130;2022-10-16T12:11:46;1.73;;;1.63;;
11887;SDS011;6003;42.756;23.130;2022-10-16T12:14:21;1.80;;;1.70;;
11887;SDS011;6003;42.756;23.130;2022-10-16T12:17:00;1.47;;;1.47;;
11887;SDS011;6003;42.756;23.130;2022-10-16T12:19:30;1.70;;;1.60;;
11887;SDS011;6003;42.756;23.130;2022-10-16T12:22:00;1.57;;;1.47;;
11887;SDS011;6003;42.756;23.130;2022-10-16T12:24:33;1.80;;;1.70;;
11887;SDS011;6003;42.756;23.130;2022-10-16T12:27:02;1.90;;;1.80;;
11887;SDS011;6003;42.756;23.130;2022-10-16T12:29:35;1.83;;;1.60;;
11887;SDS011;6003;42.756;23.130;2022-10-16T12:32:04;1.87;;;1.77;;
11887;SDS011;6003;42.756;23.130;2022-10-16T12:34:45;1.57;;;1.47;;
11887;SDS011;6003;42.756;23.130;2022-10-16T12:37:19;2.03;;;1.93;;
11887;SDS011;6003;42.756;23.130;2022-10-16T12:39:49;1.80;;;1.70;;
11887;SDS011;6003;42.756;23.130;2022-10-16T12:42:37;1.80;;;1.70;;
11887;SDS011;6003;42.756;23.130;2022-10-16T12:45:21;1.77;;;1.67;;
11887;SDS011;6003;42.756;23.130;2022-10-16T12:47:53;1.73;;;1.63;;
11887;SDS011;6003;42.756;23.130;2022-10-16T12:50:23;1.87;;;1.77;;
11887;SDS011;6003;42.756;23.130;2022-10-16T12:52:53;1.50;;;1.40;;
11887;SDS011;6003;42.756;23.130;2022-10-16T12:55:21;2.07;;;1.50;;
11887;SDS011;6003;42.756;23.130;2022-10-16T12:57:56;1.77;;;1.53;;
11887;SDS011;6003;42.756;23.130;2022-10-16T13:00:32;1.50;;;1.40;;
11887;SDS011;6003;42.756;23.130;2022-10-16T13:03:28;1.53;;;1.43;;
11887;SDS011;6003;42.756;23.130;2022-10-16T13:06:19;1.63;;;1.53;;
11887;SDS011;6003;42.756;23.130;2022-10-16T13:09:00;1.70;;;1.60;;
11887;SDS011;6003;42.756;23.130;2022-10-16T13:11:47;2.47;;;1.93;;
11887;SDS011;6003;42.756;23.130;2022-10-16T13:20:22;2.87;;;2.00;;
11887;SDS011;6003;42.756;23.130;2022-10-16T13:22:59;1.70;;;1.60;;
11887;SDS011;6003;42.756;23.130;2022-10-16T13:25:39;1.73;;;1.63;;
11887;SDS011;6003;42.756;23.130;2022-10-16T13:28:15;2.00;;;1.90;;
11887;SDS011;6003;42.756;23.130;2022-10-16T13:30:51;1.40;;;1.40;;
11887;SDS011;6003;42.756;23.130;2022-10-16T13:33:20;1.63;;;1.30;;
11887;SDS011;6003;42.756;23.130;2022-10-16T13:35:54;1.70;;;1.47;;
11887;SDS011;6003;42.756;23.130;2022-10-16T13:38:24;1.10;;;1.10;;
11887;SDS011;6003;42.756;23.130;2022-10-16T13:40:55;1.10;;;1.10;;
11887;SDS011;6003;42.756;23.130;2022-10-16T13:43:25;1.23;;;1.23;;
11887;SDS011;6003;42.756;23.130;2022-10-16T13:45:55;1.37;;;1.27;;
11887;SDS011;6003;42.756;23.130;2022-10-16T13:51:23;1.33;;;1.20;;
11887;SDS011;6003;42.756;23.130;2022-10-16T13:53:51;1.00;;;1.00;;
11887;SDS011;6003;42.756;23.130;2022-10-16T13:56:21;1.30;;;1.20;;
11887;SDS011;6003;42.756;23.130;2022-10-16T13:58:57;1.20;;;1.20;;
11887;SDS011;6003;42.756;23.130;2022-10-16T14:01:26;1.17;;;1.17;;
11887;SDS011;6003;42.756;23.130;2022-10-16T14:04:00;1.37;;;1.33;;
11887;SDS011;6003;42.756;23.130;2022-10-16T14:06:29;1.60;;;1.50;;
11887;SDS011;6003;42.756;23.130;2022-10-16T14:08:58;1.50;;;1.40;;
11887;SDS011;6003;42.756;23.130;2022-10-16T14:11:29;1.87;;;1.77;;
11887;SDS011;6003;42.756;23.130;2022-10-16T14:13:56;1.50;;;1.33;;
11887;SDS011;6003;42.756;23.130;2022-10-16T14:16:24;1.40;;;1.40;;
11887;SDS011;6003;42.756;23.130;2022-10-16T14:18:55;1.53;;;1.43;;
11887;SDS011;6003;42.756;23.130;2022-10-16T14:21:24;1.20;;;1.20;;
11887;SDS011;6003;42.756;23.130;2022-10-16T14:23:51;1.20;;;1.20;;
11887;SDS011;6003;42.756;23.130;2022-10-16T14:26:19;1.70;;;1.50;;
11887;SDS011;6003;42.756;23.130;2022-10-16T14:29:00;2.93;;;1.87;;
11887;SDS011;6003;42.756;23.130;2022-10-16T14:31:31;1.70;;;1.60;;
11887;SDS011;6003;42.756;23.130;2022-10-16T14:34:01;2.00;;;1.70;;
11887;SDS011;6003;42.756;23.130;2022-10-16T14:36:28;1.50;;;1.33;;
11887;SDS011;6003;42.756;23.130;2022-10-16T14:38:58;1.70;;;1.53;;
11887;SDS011;6003;42.756;23.130;2022-10-16T14:41:28;1.70;;;1.60;;
11887;SDS011;6003;42.756;23.130;2022-10-16T14:44:00;1.90;;;1.80;;
11887;SDS011;6003;42.756;23.130;2022-10-16T14:46:30;1.90;;;1.80;;
11887;SDS011;6003;42.756;23.130;2022-10-16T14:49:02;1.53;;;1.43;;
11887;SDS011;6003;42.756;23.130;2022-10-16T14:51:38;1.60;;;1.50;;
11887;SDS011;6003;42.756;23.130;2022-10-16T14:54:07;2.30;;;2.20;;
11887;SDS011;6003;42.756;23.130;2022-10-16T14:56:45;1.90;;;1.77;;
11887;SDS011;6003;42.756;23.130;2022-10-16T14:59:17;1.67;;;1.57;;
11887;SDS011;6003;42.756;23.130;2022-10-16T15:01:46;2.70;;;1.60;;
11887;SDS011;6003;42.756;23.130;2022-10-16T15:04:15;1.60;;;1.50;;
11887;SDS011;6003;42.756;23.130;2022-10-16T15:06:42;1.57;;;1.47;;
11887;SDS011;6003;42.756;23.130;2022-10-16T15:09:10;1.77;;;1.50;;
11887;SDS011;6003;42.756;23.130;2022-10-16T15:11:37;2.47;;;1.60;;
11887;SDS011;6003;42.756;23.130;2022-10-16T15:14:04;2.07;;;1.77;;
11887;SDS011;6003;42.756;23.130;2022-10-16T15:16:33;1.70;;;1.60;;
11887;SDS011;6003;42.756;23.130;2022-10-16T15:19:00;1.50;;;1.40;;
11887;SDS011;6003;42.756;23.130;2022-10-16T15:21:28;2.57;;;2.20;;
11887;SDS011;6003;42.756;23.130;2022-10-16T15:23:56;2.33;;;1.90;;
11887;SDS011;6003;42.756;23.130;2022-10-16T15:26:24;4.00;;;2.67;;